createdAt,value
2022-09-09T00:02:28.357Z,13.90
2022-09-09T00:05:41.894Z,16.27
2022-09-09T00:08:16.262Z,17.17
2022-09-09T00:10:43.174Z,15.13
2022-09-09T00:13:25.533Z,16.83
2022-09-09T00:16:29.300Z,19.80
2022-09-09T00:19:25.297Z,17.97
2022-09-09T00:22:21.386Z,15.57
2022-09-09T00:24:57.385Z,10.10
2022-09-09T00:27:38.954Z,10.63
2022-09-09T00:30:32.749Z,15.47
2022-09-09T00:33:13.704Z,12.30
2022-09-09T00:35:49.102Z,20.67
2022-09-09T00:38:52.256Z,17.87
2022-09-09T00:42:00.222Z,17.53
2022-09-09T00:44:38.102Z,19.80
2022-09-09T00:47:50.441Z,19.37
2022-09-09T00:50:56.268Z,20.30
2022-09-09T00:53:58.692Z,13.50
2022-09-09T00:57:01.255Z,15.97
2022-09-09T01:00:06.373Z,13.80
2022-09-09T01:02:53.821Z,17.60
2022-09-09T01:06:06.059Z,25.07
2022-09-09T01:09:02.145Z,16.53
2022-09-09T01:12:15.989Z,21.23
2022-09-09T01:14:52.981Z,17.20
2022-09-09T01:17:45.319Z,17.97
2022-09-09T01:20:31.124Z,16.97
2022-09-09T01:23:35.577Z,14.87
2022-09-09T01:26:31.680Z,14.87
2022-09-09T01:28:58.869Z,13.97
2022-09-09T01:31:43.795Z,15.90
2022-09-09T01:34:16.454Z,19.00
2022-09-09T01:37:08.157Z,8.83
2022-09-09T01:39:38.463Z,15.93
2022-09-09T01:42:10.113Z,13.77
2022-09-09T01:44:38.963Z,8.33
2022-09-09T01:47:07.094Z,7.40
2022-09-09T01:49:34.066Z,6.43
2022-09-09T01:52:02.021Z,6.50
2022-09-09T01:54:33.522Z,6.83
2022-09-09T01:57:28.237Z,9.03
2022-09-09T02:00:14.551Z,10.63
2022-09-09T02:03:26.073Z,7.30
2022-09-09T02:06:27.350Z,10.60
2022-09-09T02:08:58.530Z,12.37
2022-09-09T02:11:29.793Z,6.97
2022-09-09T02:14:11.081Z,13.27
2022-09-09T02:16:52.853Z,15.33
2022-09-09T02:19:28.729Z,9.87
2022-09-09T02:21:59.747Z,11.50
2022-09-09T02:24:30.807Z,9.00
2022-09-09T02:26:59.776Z,7.63
2022-09-09T02:29:36.822Z,8.07
2022-09-09T02:32:10.034Z,10.40
2022-09-09T02:34:45.446Z,12.43
2022-09-09T02:37:14.919Z,5.57
2022-09-09T02:39:41.918Z,10.60
2022-09-09T02:42:09.387Z,7.07
2022-09-09T02:44:40.278Z,7.77
2022-09-09T02:48:10.346Z,6.10
2022-09-09T02:50:54.679Z,8.80
2022-09-09T02:53:39.975Z,8.53
2022-09-09T02:56:20.823Z,7.47
2022-09-09T02:58:50.336Z,6.50
2022-09-09T03:01:18.191Z,6.83
2022-09-09T03:03:45.418Z,9.50
2022-09-09T03:06:12.821Z,11.47
2022-09-09T03:08:39.795Z,10.97
2022-09-09T03:11:07.039Z,4.50
2022-09-09T03:13:34.691Z,10.57
2022-09-09T03:16:01.665Z,5.03
2022-09-09T03:18:29.125Z,5.70
2022-09-09T03:20:56.355Z,9.40
2022-09-09T03:23:23.862Z,7.20
2022-09-09T03:25:52.205Z,8.23
2022-09-09T03:28:19.589Z,7.40
2022-09-09T03:30:46.546Z,12.90
2022-09-09T03:33:13.648Z,6.27
2022-09-09T03:35:47.095Z,11.93
2022-09-09T03:38:14.014Z,7.93
2022-09-09T03:40:49.635Z,8.00
2022-09-09T03:43:17.561Z,7.57
2022-09-09T03:45:50.571Z,5.40
2022-09-09T03:48:21.431Z,10.47
2022-09-09T03:50:52.233Z,8.63
2022-09-09T03:53:25.573Z,7.90
2022-09-09T03:55:56.858Z,13.73
2022-09-09T03:58:27.665Z,12.77
2022-09-09T04:01:00.831Z,13.20
2022-09-09T04:03:29.328Z,13.57
2022-09-09T04:05:59.769Z,13.30
2022-09-09T04:08:27.781Z,12.37
2022-09-09T04:10:58.791Z,9.23
2022-09-09T04:13:27.312Z,23.37
2022-09-09T04:16:00.886Z,9.27
2022-09-09T04:18:31.426Z,10.53
2022-09-09T04:20:59.095Z,5.63
2022-09-09T04:23:30.453Z,8.67
2022-09-09T04:26:00.166Z,4.70
2022-09-09T04:28:31.107Z,9.53
2022-09-09T04:31:04.371Z,11.93
2022-09-09T04:33:35.963Z,8.33
2022-09-09T04:36:05.973Z,10.43
2022-09-09T04:38:33.013Z,13.27
2022-09-09T04:41:00.069Z,12.07
2022-09-09T04:43:27.074Z,11.37
2022-09-09T04:45:54.616Z,9.17
2022-09-09T04:48:22.326Z,10.33
2022-09-09T04:51:15.819Z,11.47
2022-09-09T04:53:42.818Z,11.73
2022-09-09T04:56:14.934Z,10.70
2022-09-09T04:58:46.420Z,9.27
2022-09-09T05:01:19.189Z,11.73
2022-09-09T05:03:47.026Z,9.43
2022-09-09T05:06:18.107Z,8.60
2022-09-09T05:08:46.296Z,9.80
2022-09-09T05:11:30.870Z,10.67
2022-09-09T05:13:58.028Z,8.63
2022-09-09T05:16:25.040Z,10.40
2022-09-09T05:18:52.243Z,7.60
2022-09-09T05:21:22.340Z,8.80
2022-09-09T05:23:49.723Z,9.20
2022-09-09T05:26:21.297Z,9.43
2022-09-09T05:28:48.878Z,9.70
2022-09-09T05:31:19.237Z,8.80
2022-09-09T05:33:49.115Z,8.63
2022-09-09T05:36:21.861Z,7.50
2022-09-09T05:38:50.813Z,7.80
2022-09-09T05:41:18.384Z,7.73
2022-09-09T05:43:46.552Z,7.53
2022-09-09T05:46:25.164Z,8.13
2022-09-09T05:48:54.322Z,5.40
2022-09-09T05:51:31.272Z,5.70
2022-09-09T05:54:01.198Z,6.70
2022-09-09T05:56:30.331Z,6.00
2022-09-09T05:58:57.963Z,6.73
2022-09-09T06:01:35.374Z,5.30
2022-09-09T06:04:03.736Z,5.40
2022-09-09T06:06:43.135Z,5.47
2022-09-09T06:09:11.637Z,5.50
2022-09-09T06:11:40.953Z,5.37
2022-09-09T06:14:09.613Z,5.97
2022-09-09T06:16:40.168Z,6.07
2022-09-09T06:19:07.443Z,5.90
2022-09-09T06:21:38.003Z,5.10
2022-09-09T06:24:08.397Z,5.30
2022-09-09T06:26:50.003Z,4.90
2022-09-09T06:29:17.202Z,5.80
2022-09-09T06:31:59.833Z,5.67
2022-09-09T06:34:46.404Z,5.10
2022-09-09T06:37:13.456Z,5.60
2022-09-09T06:39:40.542Z,5.43
2022-09-09T06:42:10.211Z,5.47
2022-09-09T06:44:37.487Z,5.30
2022-09-09T06:47:04.833Z,5.33
2022-09-09T06:49:31.809Z,4.67
2022-09-09T06:51:58.836Z,4.93
2022-09-09T06:54:29.693Z,3.90
2022-09-09T06:56:56.776Z,3.70
2022-09-09T06:59:24.039Z,2.97
2022-09-09T07:02:03.416Z,3.70
2022-09-09T07:04:30.687Z,4.20
2022-09-09T07:06:57.697Z,4.47
2022-09-09T07:09:28.365Z,4.53
2022-09-09T07:11:55.595Z,4.20
2022-09-09T07:14:23.619Z,3.47
2022-09-09T07:16:50.584Z,3.90
2022-09-09T07:19:17.845Z,4.30
2022-09-09T07:22:00.315Z,3.20
2022-09-09T07:24:31.499Z,3.50
2022-09-09T07:26:58.462Z,3.93
2022-09-09T07:29:25.458Z,3.60
2022-09-09T07:31:52.723Z,2.60
2022-09-09T07:34:20.323Z,2.60
2022-09-09T07:36:47.695Z,2.57
2022-09-09T07:39:19.989Z,2.60
2022-09-09T07:41:49.261Z,2.27
2022-09-09T07:44:24.193Z,2.57
2022-09-09T07:46:51.636Z,2.40
2022-09-09T07:49:24.436Z,2.50
2022-09-09T07:51:54.817Z,2.75
2022-09-09T07:54:24.810Z,1.90
2022-09-09T07:56:53.644Z,2.40
2022-09-09T07:59:21.216Z,2.05
2022-09-09T08:01:54.368Z,2.23
2022-09-09T08:04:26.094Z,1.95
2022-09-09T08:06:58.809Z,2.15
2022-09-09T08:09:32.097Z,1.77
2022-09-09T08:12:00.931Z,2.20
2022-09-09T08:14:28.618Z,1.95
2022-09-09T08:16:59.100Z,2.00
2022-09-09T08:19:37.046Z,1.70
2022-09-09T08:22:04.699Z,1.75
2022-09-09T08:24:32.137Z,1.67
2022-09-09T08:26:59.140Z,1.95
2022-09-09T08:29:26.124Z,1.95
2022-09-09T08:31:58.174Z,2.15
2022-09-09T08:34:27.884Z,2.28
2022-09-09T08:36:55.827Z,1.60
2022-09-09T08:39:23.998Z,1.85
2022-09-09T08:42:01.586Z,1.58
2022-09-09T08:44:58.894Z,1.70
2022-09-09T08:48:10.313Z,1.50
2022-09-09T08:50:41.755Z,1.65
2022-09-09T08:53:32.480Z,1.40
2022-09-09T08:56:07.909Z,2.50
2022-09-09T08:58:41.741Z,2.10
2022-09-09T09:01:49.282Z,2.03
2022-09-09T09:04:52.823Z,1.60
2022-09-09T09:07:49.998Z,2.15
2022-09-09T09:10:54.835Z,1.30
2022-09-09T09:13:49.704Z,1.60
2022-09-09T09:16:33.292Z,1.75
2022-09-09T09:19:01.293Z,1.38
2022-09-09T09:21:33.968Z,1.90
2022-09-09T09:24:02.564Z,1.70
2022-09-09T09:26:36.720Z,1.70
2022-09-09T09:29:20.798Z,1.55
2022-09-09T09:31:55.692Z,1.20
2022-09-09T09:34:25.493Z,1.33
2022-09-09T09:37:02.800Z,1.30
2022-09-09T09:42:26.653Z,1.55
2022-09-09T09:44:53.779Z,1.40
2022-09-09T09:47:27.982Z,1.70
2022-09-09T09:50:02.123Z,1.40
2022-09-09T09:52:33.224Z,1.52
2022-09-09T09:55:07.486Z,1.73
2022-09-09T09:57:35.416Z,1.58
2022-09-09T10:00:23.847Z,1.73
2022-09-09T10:02:57.367Z,1.08
2022-09-09T10:05:35.833Z,1.50
2022-09-09T10:08:17.761Z,1.48
2022-09-09T10:11:00.766Z,1.35
2022-09-09T10:14:16.088Z,1.15
2022-09-09T10:17:35.514Z,1.10
2022-09-09T10:20:36.768Z,1.10
2022-09-09T10:23:34.809Z,1.45
2022-09-09T10:26:26.391Z,1.30
2022-09-09T10:29:34.897Z,1.00
2022-09-09T10:32:32.330Z,1.40
2022-09-09T10:35:43.337Z,1.10
2022-09-09T10:38:27.367Z,1.05
2022-09-09T10:40:54.339Z,1.13
2022-09-09T10:44:05.999Z,1.17
2022-09-09T10:47:09.655Z,1.17
2022-09-09T10:50:09.478Z,1.13
2022-09-09T10:53:18.079Z,1.13
2022-09-09T10:56:07.438Z,1.05
2022-09-09T10:59:03.243Z,1.30
2022-09-09T11:01:58.341Z,1.10
2022-09-09T11:04:45.996Z,1.17
2022-09-09T11:07:40.453Z,1.35
2022-09-09T11:10:58.738Z,0.73
2022-09-09T11:13:55.374Z,1.45
2022-09-09T11:16:38.039Z,1.02
2022-09-09T11:19:38.679Z,1.20
2022-09-09T11:23:18.206Z,1.00
2022-09-09T11:25:56.912Z,1.33
2022-09-09T11:29:04.730Z,0.80
2022-09-09T11:32:19.027Z,0.90
2022-09-09T11:35:42.398Z,0.80
2022-09-09T11:38:22.501Z,0.85
2022-09-09T11:41:06.801Z,0.75
2022-09-09T11:43:53.083Z,0.90
2022-09-09T11:46:37.778Z,0.70
2022-09-09T11:49:08.081Z,1.00
2022-09-09T11:51:36.388Z,0.70
2022-09-09T11:54:34.459Z,1.02
2022-09-09T11:57:03.183Z,1.20
2022-09-09T11:59:35.877Z,0.70
2022-09-09T12:02:23.384Z,0.88
2022-09-09T12:05:07.105Z,0.80
2022-09-09T12:07:58.104Z,0.93
2022-09-09T12:10:33.862Z,1.15
2022-09-09T12:13:32.375Z,0.80
2022-09-09T12:16:03.256Z,1.10
2022-09-09T12:18:45.360Z,0.75
2022-09-09T12:21:40.332Z,0.50
2022-09-09T12:24:26.612Z,0.82
2022-09-09T12:27:22.587Z,1.15
2022-09-09T12:30:10.506Z,0.50
2022-09-09T12:32:38.998Z,0.90
2022-09-09T12:35:28.910Z,0.68
2022-09-09T12:38:07.920Z,0.63
2022-09-09T12:40:40.102Z,1.27
2022-09-09T12:43:22.968Z,0.60
2022-09-09T12:45:58.743Z,1.08
2022-09-09T12:48:45.502Z,0.77
2022-09-09T12:51:33.297Z,0.73
2022-09-09T12:54:01.421Z,0.60
2022-09-09T12:56:33.449Z,0.70
2022-09-09T12:59:01.885Z,0.80
2022-09-09T13:01:34.187Z,0.55
2022-09-09T13:04:01.948Z,0.80
2022-09-09T13:06:32.582Z,0.32
2022-09-09T13:09:03.312Z,0.57
2022-09-09T13:11:44.792Z,0.88
2022-09-09T13:14:28.092Z,0.55
2022-09-09T13:17:04.854Z,0.85
2022-09-09T13:19:40.726Z,0.70
2022-09-09T13:22:38.553Z,0.50
2022-09-09T13:25:12.398Z,0.90
2022-09-09T13:27:54.338Z,0.73
2022-09-09T13:30:33.371Z,0.47
2022-09-09T13:33:12.977Z,0.50
2022-09-09T13:36:00.009Z,0.60
2022-09-09T13:38:29.314Z,0.45
2022-09-09T13:41:05.250Z,0.73
2022-09-09T13:43:44.358Z,0.80
2022-09-09T13:46:38.450Z,0.70
2022-09-09T13:49:11.081Z,0.90
2022-09-09T13:51:51.948Z,0.40
2022-09-09T13:54:21.862Z,0.80
2022-09-09T13:56:50.651Z,0.60
2022-09-09T13:59:28.083Z,0.50
2022-09-09T14:02:05.766Z,0.60
2022-09-09T14:04:32.724Z,0.60
2022-09-09T14:07:00.495Z,0.60
2022-09-09T14:09:27.432Z,0.75
2022-09-09T14:11:56.205Z,0.68
2022-09-09T14:14:23.275Z,0.82
2022-09-09T14:16:50.539Z,0.47
2022-09-09T14:19:22.605Z,0.52
2022-09-09T14:21:54.142Z,0.60
2022-09-09T14:24:21.200Z,0.50
2022-09-09T14:26:49.035Z,0.60
2022-09-09T14:29:16.014Z,0.60
2022-09-09T14:31:45.939Z,0.50
2022-09-09T14:34:15.206Z,0.50
2022-09-09T14:36:42.423Z,0.60
2022-09-09T14:39:09.615Z,0.60
2022-09-09T14:41:36.571Z,0.68
2022-09-09T14:44:06.552Z,0.60
2022-09-09T14:46:34.468Z,0.75
2022-09-09T14:49:01.485Z,0.70
2022-09-09T14:51:29.111Z,0.60
2022-09-09T14:54:00.014Z,0.60
2022-09-09T14:56:32.059Z,0.60
2022-09-09T14:59:09.662Z,0.60
2022-09-09T15:01:36.837Z,1.10
2022-09-09T15:04:14.830Z,0.65
2022-09-09T15:06:45.282Z,0.73
2022-09-09T15:09:12.711Z,1.00
2022-09-09T15:11:40.073Z,0.80
2022-09-09T15:14:10.318Z,0.68
2022-09-09T15:16:40.745Z,0.50
2022-09-09T15:19:08.194Z,0.80
2022-09-09T15:21:39.474Z,0.40
2022-09-09T15:24:09.192Z,0.60
2022-09-09T15:26:39.336Z,0.60
2022-09-09T15:29:08.426Z,0.63
2022-09-09T15:31:36.303Z,0.82
2022-09-09T15:34:07.932Z,0.70
2022-09-09T15:36:39.529Z,0.68
2022-09-09T15:39:13.492Z,0.57
2022-09-09T15:41:41.572Z,0.60
2022-09-09T15:44:11.982Z,0.70
2022-09-09T15:46:52.366Z,0.50
2022-09-09T15:49:27.473Z,0.70
2022-09-09T15:52:03.264Z,0.65
2022-09-09T15:54:36.372Z,0.75
2022-09-09T15:57:06.801Z,0.70
2022-09-09T15:59:34.968Z,0.50
2022-09-09T16:02:02.708Z,0.57
2022-09-09T16:04:30.709Z,0.52
2022-09-09T16:07:05.651Z,0.60
2022-09-09T16:09:34.069Z,0.70
2022-09-09T16:12:07.272Z,0.70
2022-09-09T16:14:36.628Z,0.55
2022-09-09T16:17:06.314Z,0.50
2022-09-09T16:19:35.598Z,0.68
2022-09-09T16:22:03.393Z,0.88
2022-09-09T16:24:30.509Z,0.50
2022-09-09T16:26:57.630Z,0.65
2022-09-09T16:29:28.175Z,0.73
2022-09-09T16:31:58.831Z,0.80
2022-09-09T16:34:29.708Z,0.70
2022-09-09T16:36:57.133Z,0.70
2022-09-09T16:39:24.242Z,0.80
2022-09-09T16:41:52.546Z,0.80
2022-09-09T16:44:20.389Z,0.90
2022-09-09T16:46:56.653Z,1.15
2022-09-09T16:49:25.216Z,0.70
2022-09-09T16:51:55.505Z,0.50
2022-09-09T16:54:24.338Z,1.00
2022-09-09T16:56:51.250Z,1.65
2022-09-09T16:59:24.802Z,1.08
2022-09-09T17:01:53.517Z,0.95
2022-09-09T17:04:29.029Z,1.00
2022-09-09T17:06:58.337Z,0.80
2022-09-09T17:09:30.073Z,0.85
2022-09-09T17:11:58.091Z,1.00
2022-09-09T17:14:25.114Z,0.70
2022-09-09T17:16:52.438Z,0.90
2022-09-09T17:19:19.976Z,1.63
2022-09-09T17:22:15.018Z,0.80
2022-09-09T17:24:39.349Z,0.95
2022-09-09T17:27:06.693Z,0.73
2022-09-09T17:29:36.752Z,0.70
2022-09-09T17:32:06.362Z,0.90
2022-09-09T17:34:34.085Z,0.85
2022-09-09T17:37:01.165Z,0.80
2022-09-09T17:39:28.307Z,0.65
2022-09-09T17:41:55.642Z,0.80
2022-09-09T17:44:22.659Z,0.98
2022-09-09T17:46:50.882Z,1.00
2022-09-09T17:49:19.318Z,0.77
2022-09-09T17:51:47.300Z,0.90
2022-09-09T17:54:21.585Z,0.75
2022-09-09T17:56:49.643Z,0.60
2022-09-09T17:59:18.851Z,1.00
2022-09-09T18:01:49.679Z,1.10
2022-09-09T18:04:18.408Z,1.10
2022-09-09T18:06:55.562Z,1.30
2022-09-09T18:09:26.473Z,0.90
2022-09-09T18:11:57.771Z,0.98
2022-09-09T18:14:32.229Z,0.80
2022-09-09T18:17:02.166Z,0.90
2022-09-09T18:19:32.960Z,0.77
2022-09-09T18:22:02.695Z,0.55
2022-09-09T18:24:30.717Z,0.60
2022-09-09T18:26:58.152Z,1.65
2022-09-09T18:29:26.190Z,0.60
2022-09-09T18:31:55.706Z,0.68
2022-09-09T18:34:25.770Z,0.50
2022-09-09T18:36:55.745Z,0.45
2022-09-09T18:39:29.808Z,0.73
2022-09-09T18:42:01.297Z,0.60
2022-09-09T18:44:34.745Z,0.50
2022-09-09T18:47:03.562Z,0.60
2022-09-09T18:49:30.731Z,0.98
2022-09-09T18:51:57.933Z,0.80
2022-09-09T18:54:29.822Z,1.00
2022-09-09T18:56:57.369Z,0.70
2022-09-09T18:59:25.535Z,1.05
2022-09-09T19:01:54.275Z,0.75
2022-09-09T19:04:24.524Z,0.80
2022-09-09T19:06:57.729Z,1.45
2022-09-09T19:09:30.994Z,0.98
2022-09-09T19:12:02.139Z,0.80
2022-09-09T19:14:29.734Z,1.00
2022-09-09T19:16:57.296Z,0.82
2022-09-09T19:19:32.771Z,0.70
2022-09-09T19:22:01.715Z,0.85
2022-09-09T19:24:32.473Z,0.60
2022-09-09T19:27:05.662Z,1.00
2022-09-09T19:29:36.663Z,0.63
2022-09-09T19:34:52.509Z,0.70
2022-09-09T19:37:19.756Z,0.57
2022-09-09T19:39:49.343Z,0.80
2022-09-09T19:42:16.737Z,0.83
2022-09-09T19:44:43.794Z,0.80
2022-09-09T19:47:10.957Z,1.10
2022-09-09T19:49:38.569Z,0.97
2022-09-09T19:52:05.640Z,0.87
2022-09-09T19:54:32.950Z,1.08
2022-09-09T19:57:03.470Z,1.02
2022-09-09T19:59:30.611Z,0.88
2022-09-09T20:01:58.362Z,0.80
2022-09-09T20:04:26.336Z,0.90
2022-09-09T20:06:53.854Z,0.77
2022-09-09T20:09:21.857Z,0.70
2022-09-09T20:11:50.316Z,0.60
2022-09-09T20:14:18.166Z,0.60
2022-09-09T20:16:46.342Z,0.47
2022-09-09T20:19:18.465Z,0.73
2022-09-09T20:21:49.339Z,0.83
2022-09-09T20:24:20.567Z,0.73
2022-09-09T20:26:48.891Z,0.67
2022-09-09T20:29:20.060Z,0.57
2022-09-09T20:31:48.395Z,0.67
2022-09-09T20:34:21.734Z,0.60
2022-09-09T20:36:50.767Z,0.50
2022-09-09T20:39:20.854Z,0.60
2022-09-09T20:41:49.105Z,0.60
2022-09-09T20:44:24.076Z,0.63
2022-09-09T20:47:02.585Z,0.60
2022-09-09T20:49:30.445Z,0.47
2022-09-09T20:51:57.374Z,0.60
2022-09-09T20:54:30.121Z,0.70
2022-09-09T20:56:58.036Z,0.60
2022-09-09T20:59:31.174Z,0.87
2022-09-09T21:01:59.396Z,0.70
2022-09-09T21:04:26.429Z,0.73
2022-09-09T21:06:53.603Z,0.93
2022-09-09T21:09:23.137Z,0.98
2022-09-09T21:11:51.007Z,0.50
2022-09-09T21:14:18.268Z,0.73
2022-09-09T21:16:45.761Z,1.00
2022-09-09T21:19:12.713Z,0.70
2022-09-09T21:21:40.111Z,0.80
2022-09-09T21:24:07.285Z,0.60
2022-09-09T21:26:35.441Z,0.70
2022-09-09T21:29:02.745Z,0.70
2022-09-09T21:31:29.866Z,0.60
2022-09-09T21:33:57.862Z,0.60
2022-09-09T21:36:28.203Z,0.53
2022-09-09T21:38:56.708Z,0.60
2022-09-09T21:41:23.709Z,0.53
2022-09-09T21:43:54.353Z,0.43
2022-09-09T21:46:23.193Z,0.60
2022-09-09T21:48:50.616Z,0.52
2022-09-09T21:51:18.865Z,0.70
2022-09-09T21:53:46.144Z,0.60
2022-09-09T21:56:19.080Z,0.50
2022-09-09T21:58:47.247Z,0.40
2022-09-09T22:01:18.099Z,0.50
2022-09-09T22:03:46.140Z,0.60
2022-09-09T22:06:17.483Z,0.90
2022-09-09T22:08:47.712Z,0.67
2022-09-09T22:11:25.285Z,0.50
2022-09-09T22:13:55.810Z,0.70
2022-09-09T22:16:23.915Z,0.70
2022-09-09T22:18:56.761Z,0.67
2022-09-09T22:21:26.153Z,0.50
2022-09-09T22:23:59.629Z,0.70
2022-09-09T22:26:31.610Z,0.60
2022-09-09T22:28:59.369Z,0.50
2022-09-09T22:31:27.897Z,0.70
2022-09-09T22:33:55.262Z,0.50
2022-09-09T22:36:22.808Z,0.50
2022-09-09T22:38:51.724Z,0.60
2022-09-09T22:41:19.933Z,0.50
2022-09-09T22:43:47.553Z,0.87
2022-09-09T22:46:15.354Z,0.60
2022-09-09T22:48:43.142Z,0.60
2022-09-09T22:51:14.536Z,0.70
2022-09-09T22:53:44.684Z,0.70
2022-09-09T22:56:19.447Z,0.70
2022-09-09T22:58:47.782Z,0.50
2022-09-09T23:01:20.903Z,0.80
2022-09-09T23:03:49.523Z,0.50
2022-09-09T23:06:23.923Z,0.67
2022-09-09T23:08:56.262Z,0.77
2022-09-09T23:11:29.114Z,1.20
2022-09-09T23:14:00.151Z,0.80
2022-09-09T23:16:39.469Z,1.00
2022-09-09T23:19:10.153Z,0.77
2022-09-09T23:21:39.408Z,0.80
2022-09-09T23:24:08.726Z,0.70
2022-09-09T23:26:35.735Z,0.73
2022-09-09T23:29:02.706Z,0.93
2022-09-09T23:31:35.459Z,0.70
2022-09-09T23:34:02.584Z,0.50
2022-09-09T23:36:30.347Z,0.80
2022-09-09T23:39:04.046Z,0.87
2022-09-09T23:41:33.072Z,0.90
2022-09-09T23:44:02.390Z,0.47
2022-09-09T23:46:32.217Z,0.80
2022-09-09T23:49:00.316Z,0.80
2022-09-09T23:51:33.898Z,0.90
2022-09-09T23:54:04.661Z,0.87
2022-09-09T23:56:40.411Z,1.00
2022-09-09T23:59:08.527Z,0.70
